Time;durP1;ratioP1;P1;durP2;ratioP2;P2;SDS_P1;SDS_P2;PMS_P1;PMS_P2;Temp;Humidity;BMP_temperature;BMP_pressure;BME280_temperature;BME280_humidity;BME280_pressure;Samples;Min_cycle;Max_cycle;Signal;HPM_P1;HPM_P2
2021/06/04 04:01:49;;;;;;;19.40;17.90;;;17.00;99.90;;;;;;5341063;23;20593;-68
2021/06/04 04:04:16;;;;;;;18.60;17.20;;;17.00;99.90;;;;;;4937573;29;20472;-68
2021/06/04 04:06:43;;;;;;;18.57;17.10;;;17.00;99.90;;;;;;4937154;28;20482;-68
2021/06/04 04:09:10;;;;;;;20.20;18.50;;;17.00;99.90;;;;;;4937800;29;20568;-68
2021/06/04 04:11:37;;;;;;;19.80;18.17;;;17.00;99.90;;;;;;4937605;29;20900;-69
2021/06/04 04:14:04;;;;;;;20.57;18.97;;;17.10;99.90;;;;;;4937296;29;20472;-67
2021/06/04 04:16:31;;;;;;;19.63;18.10;;;17.10;99.90;;;;;;4937719;29;20889;-68
2021/06/04 04:18:58;;;;;;;20.60;18.97;;;17.10;99.90;;;;;;4937222;29;20536;-68
2021/06/04 04:21:25;;;;;;;21.43;19.63;;;17.00;99.90;;;;;;4936739;29;20486;-68
2021/06/04 04:23:54;;;;;;;18.30;16.87;;;17.40;99.90;;;;;;4936881;29;20466;-70
2021/06/04 04:26:23;;;;;;;16.17;14.90;;;17.90;99.90;;;;;;4937548;29;20492;-69
2021/06/04 04:28:51;;;;;;;16.33;15.10;;;18.50;99.90;;;;;;4937476;29;20465;-70
2021/06/04 04:31:21;;;;;;;15.30;14.20;;;19.00;99.90;;;;;;4937290;29;20559;-70
2021/06/04 04:33:47;;;;;;;14.57;13.53;;;19.60;99.90;;;;;;4937029;29;20517;-69
2021/06/04 04:36:18;;;;;;;13.57;12.73;;;20.00;99.90;;;;;;4937220;29;20500;-70
2021/06/04 04:38:45;;;;;;;13.40;12.60;;;20.60;99.90;;;;;;4937405;29;20525;-70
2021/06/04 04:41:13;;;;;;;14.10;13.20;;;21.00;99.90;;;;;;4937347;29;20986;-70
2021/06/04 04:43:42;;;;;;;12.27;11.53;;;21.50;99.90;;;;;;4937319;29;20466;-70
2021/06/04 04:46:10;;;;;;;12.80;12.00;;;22.00;99.90;;;;;;4937398;29;20490;-69
2021/06/04 04:48:37;;;;;;;12.73;11.93;;;22.30;99.90;;;;;;4937654;29;20489;-70
2021/06/04 04:51:05;;;;;;;12.17;11.47;;;22.50;99.90;;;;;;4936900;29;21017;-69
2021/06/04 04:53:33;;;;;;;11.53;10.93;;;22.60;99.90;;;;;;4936963;29;20474;-69
2021/06/04 04:56:00;;;;;;;12.40;11.67;;;23.00;99.90;;;;;;4937249;29;20472;-70
2021/06/04 04:58:26;;;;;;;11.37;10.77;;;23.40;99.90;;;;;;4937426;29;20496;-69
2021/06/04 05:00:54;;;;;;;10.90;10.40;;;23.60;99.90;;;;;;4936976;29;20497;-70
2021/06/04 05:03:21;;;;;;;10.97;10.47;;;23.80;99.90;;;;;;4937084;29;20466;-69
2021/06/04 05:05:48;;;;;;;12.43;11.67;;;23.90;99.90;;;;;;4936500;28;20949;-69
2021/06/04 05:08:14;;;;;;;10.10;9.67;;;24.10;99.90;;;;;;4936777;29;20584;-69
2021/06/04 05:10:42;;;;;;;10.70;10.00;;;24.30;99.90;;;;;;4936992;29;20608;-69
2021/06/04 05:13:09;;;;;;;10.90;10.43;;;24.50;99.90;;;;;;4937000;29;20944;-69
2021/06/04 05:15:37;;;;;;;10.67;10.13;;;25.00;99.90;;;;;;4936958;29;20963;-69
2021/06/04 05:18:05;;;;;;;10.77;10.37;;;25.10;99.90;;;;;;4936552;29;20501;-69
2021/06/04 05:20:31;;;;;;;11.70;11.07;;;25.20;99.90;;;;;;4936969;29;20487;-69
2021/06/04 05:22:58;;;;;;;12.30;11.60;;;25.60;99.90;;;;;;4936296;29;20475;-69
2021/06/04 05:25:27;;;;;;;11.27;10.70;;;25.60;99.90;;;;;;4935761;29;20473;-69
2021/06/04 05:27:55;;;;;;;12.30;11.50;;;25.80;99.90;;;;;;4936458;29;20471;-69
2021/06/04 05:30:25;;;;;;;13.07;12.17;;;26.00;99.90;;;;;;4936642;29;20467;-69
2021/06/04 05:32:51;;;;;;;12.33;11.70;;;26.30;99.90;;;;;;4936806;29;20493;-69
2021/06/04 05:35:17;;;;;;;12.80;12.10;;;26.50;99.90;;;;;;4936826;29;20468;-69
2021/06/04 05:37:44;;;;;;;12.90;12.13;;;26.20;99.90;;;;;;4936257;29;20476;-69
2021/06/04 05:40:13;;;;;;;12.33;11.63;;;26.30;99.90;;;;;;4936212;29;20475;-68
2021/06/04 05:42:40;;;;;;;12.87;12.17;;;26.70;99.90;;;;;;4936168;29;20460;-68
2021/06/04 05:45:12;;;;;;;12.47;11.67;;;27.00;99.90;;;;;;4936217;29;20487;-68
2021/06/04 05:47:38;;;;;;;12.53;11.83;;;27.10;99.90;;;;;;4936233;29;20468;-69
2021/06/04 05:50:07;;;;;;;12.37;11.63;;;27.30;99.90;;;;;;4936169;29;20471;-69
2021/06/04 05:52:34;;;;;;;13.57;12.67;;;27.40;99.90;;;;;;4935424;29;20489;-68
2021/06/04 05:55:01;;;;;;;13.17;12.57;;;26.90;99.90;;;;;;4935612;29;20468;-68
2021/06/04 05:57:27;;;;;;;13.23;12.53;;;26.90;99.90;;;;;;4936076;29;20488;-68
2021/06/04 05:59:53;;;;;;;12.70;11.70;;;27.10;99.90;;;;;;4936063;29;20471;-68
2021/06/04 06:02:21;;;;;;;11.97;11.20;;;27.30;99.90;;;;;;4935492;29;20555;-66
2021/06/04 06:04:47;;;;;;;12.57;11.77;;;27.50;99.90;;;;;;4935734;29;20476;-67
2021/06/04 06:07:13;;;;;;;12.20;11.50;;;27.80;99.90;;;;;;4935407;28;20479;-67
2021/06/04 06:09:39;;;;;;;12.17;11.37;;;27.70;99.90;;;;;;4935424;29;20473;-67
2021/06/04 06:12:06;;;;;;;12.30;11.70;;;27.90;99.90;;;;;;4935621;29;20492;-68
2021/06/04 06:14:32;;;;;;;11.83;11.17;;;27.50;99.90;;;;;;4935586;29;20472;-67
2021/06/04 06:16:59;;;;;;;12.50;11.90;;;27.70;99.90;;;;;;4935323;29;20497;-67
2021/06/04 06:19:26;;;;;;;11.67;11.17;;;28.20;99.90;;;;;;4935274;29;20578;-67
2021/06/04 06:21:54;;;;;;;10.57;10.07;;;28.30;99.90;;;;;;4934896;29;20489;-68
2021/06/04 06:24:21;;;;;;;11.43;10.83;;;28.50;99.90;;;;;;4934668;29;20845;-67
2021/06/04 06:26:48;;;;;;;11.90;11.00;;;28.80;99.90;;;;;;4935342;29;20464;-67
2021/06/04 06:29:16;;;;;;;12.20;11.30;;;28.60;99.90;;;;;;4935176;29;20499;-67
2021/06/04 06:31:45;;;;;;;11.57;10.80;;;28.50;99.90;;;;;;4934812;29;20542;-67
2021/06/04 06:34:11;;;;;;;10.83;10.23;;;27.80;99.90;;;;;;4934715;29;20963;-67
2021/06/04 06:36:43;;;;;;;11.37;10.80;;;27.90;99.90;;;;;;4934726;29;20472;-68
2021/06/04 06:39:12;;;;;;;11.20;10.70;;;28.30;99.90;;;;;;4935420;29;20467;-68
2021/06/04 06:41:40;;;;;;;10.57;10.17;;;28.60;99.90;;;;;;4935125;29;20546;-69
2021/06/04 06:44:07;;;;;;;10.77;10.37;;;28.80;99.90;;;;;;4934995;29;20973;-68
2021/06/04 06:46:34;;;;;;;10.10;9.70;;;28.80;99.90;;;;;;4935009;29;20611;-68
2021/06/04 06:49:00;;;;;;;11.00;10.40;;;29.10;99.90;;;;;;4935070;29;20478;-69
2021/06/04 06:51:27;;;;;;;10.40;9.43;;;29.30;99.90;;;;;;4935286;29;20530;-68
2021/06/04 06:53:56;;;;;;;10.43;9.93;;;29.40;99.90;;;;;;4942045;29;20504;-69
2021/06/04 06:56:22;;;;;;;10.20;9.70;;;29.50;99.90;;;;;;4941328;29;20477;-69
2021/06/04 06:58:49;;;;;;;10.47;9.90;;;29.50;99.00;;;;;;4936520;29;20846;-69
2021/06/04 07:01:15;;;;;;;11.00;10.60;;;29.50;99.20;;;;;;4934962;29;20608;-71
2021/06/04 07:03:43;;;;;;;9.93;9.53;;;29.80;97.90;;;;;;4936303;29;20479;-70
2021/06/04 07:06:12;;;;;;;11.03;10.43;;;29.60;99.10;;;;;;4935507;28;20550;-70
2021/06/04 07:08:39;;;;;;;10.23;9.83;;;30.00;98.40;;;;;;4936290;29;20519;-70
2021/06/04 07:11:06;;;;;;;10.57;10.07;;;30.20;98.30;;;;;;4934853;29;20976;-70
2021/06/04 07:13:33;;;;;;;11.10;10.50;;;30.00;98.10;;;;;;4934865;29;20536;-70
2021/06/04 07:16:03;;;;;;;11.10;10.57;;;29.80;97.90;;;;;;4934899;29;20466;-70
2021/06/04 07:18:30;;;;;;;11.87;11.10;;;29.50;98.90;;;;;;4935212;29;20465;-69
2021/06/04 07:20:57;;;;;;;10.53;9.83;;;29.20;99.00;;;;;;4934639;29;20491;-69
2021/06/04 07:23:25;;;;;;;10.90;10.40;;;29.20;98.90;;;;;;4935490;29;21007;-69
2021/06/04 07:25:51;;;;;;;10.80;10.30;;;29.20;99.40;;;;;;4935484;29;20472;-69
2021/06/04 07:28:23;;;;;;;11.53;11.03;;;29.50;98.10;;;;;;4936026;29;20469;-70
2021/06/04 07:30:51;;;;;;;10.97;10.50;;;29.50;98.60;;;;;;4935980;29;21083;-69
2021/06/04 07:33:23;;;;;;;11.07;10.57;;;29.60;98.50;;;;;;4939242;29;20468;-69
2021/06/04 07:35:50;;;;;;;10.13;9.73;;;29.30;98.40;;;;;;4941373;29;20476;-69
2021/06/04 07:38:16;;;;;;;10.70;10.20;;;29.40;98.00;;;;;;4942229;29;20531;-69
2021/06/04 07:40:43;;;;;;;11.20;10.70;;;29.30;97.60;;;;;;4939364;29;20487;-70
2021/06/04 07:43:14;;;;;;;10.57;10.13;;;29.10;98.20;;;;;;4940190;29;20469;-69
2021/06/04 07:45:44;;;;;;;11.10;10.70;;;28.70;99.20;;;;;;4942183;29;20519;-70
2021/06/04 07:48:13;;;;;;;12.00;11.40;;;28.90;98.90;;;;;;4945547;29;20482;-69
2021/06/04 07:50:41;;;;;;;11.67;11.07;;;29.00;99.10;;;;;;4949518;29;20554;-69
2021/06/04 07:53:08;;;;;;;11.30;10.70;;;29.20;98.20;;;;;;4948964;29;20553;-69
2021/06/04 07:55:34;;;;;;;10.67;10.27;;;29.00;98.10;;;;;;4951994;29;20464;-69
2021/06/04 07:58:00;;;;;;;10.90;10.50;;;28.70;99.30;;;;;;4948032;29;20560;-68
2021/06/04 08:00:28;;;;;;;12.17;11.67;;;29.00;98.60;;;;;;4951217;29;20491;-68
2021/06/04 08:02:57;;;;;;;11.90;11.30;;;29.00;98.40;;;;;;4949473;29;20466;-68
2021/06/04 08:05:24;;;;;;;11.23;10.70;;;28.50;98.30;;;;;;4938938;29;20961;-67
2021/06/04 08:07:51;;;;;;;11.90;11.20;;;28.70;98.70;;;;;;4937376;29;20502;-68
2021/06/04 08:10:17;;;;;;;12.10;11.40;;;28.40;98.70;;;;;;4937249;29;20472;-68
2021/06/04 08:12:44;;;;;;;11.30;10.70;;;28.10;99.30;;;;;;4938196;29;20492;-69
2021/06/04 08:15:15;;;;;;;11.00;10.40;;;28.10;99.90;;;;;;4937752;29;20591;-69
2021/06/04 08:17:42;;;;;;;12.00;11.40;;;28.30;99.40;;;;;;4937926;29;20552;-71
2021/06/04 08:20:12;;;;;;;12.40;11.80;;;28.20;99.70;;;;;;4937882;29;20474;-68
2021/06/04 08:22:41;;;;;;;11.90;11.40;;;28.10;99.90;;;;;;4936734;29;20885;-68
2021/06/04 08:25:08;;;;;;;11.53;10.90;;;28.20;99.90;;;;;;4936502;29;20468;-67
2021/06/04 08:27:35;;;;;;;12.30;11.60;;;28.10;99.80;;;;;;4937163;29;20468;-67
2021/06/04 08:30:01;;;;;;;11.60;11.10;;;28.30;99.90;;;;;;4936743;29;20965;-67
2021/06/04 08:32:28;;;;;;;11.40;10.83;;;28.50;99.10;;;;;;4937097;29;20503;-67
2021/06/04 08:34:54;;;;;;;11.30;10.60;;;28.90;99.20;;;;;;4938482;29;20528;-67
2021/06/04 08:37:21;;;;;;;11.10;10.43;;;29.00;99.30;;;;;;4936963;29;20479;-68
2021/06/04 08:39:48;;;;;;;10.67;10.07;;;29.10;98.50;;;;;;4937582;29;20481;-69
2021/06/04 08:42:34;;;;;;;11.73;11.13;;;28.70;98.20;;;;;;4937115;29;20488;-68
2021/06/04 08:45:27;;;;;;;11.60;11.00;;;28.80;98.50;;;;;;4937989;29;20791;-69
2021/06/04 08:48:02;;;;;;;11.43;10.93;;;28.80;98.00;;;;;;4937096;29;20557;-69
2021/06/04 08:50:37;;;;;;;10.40;10.00;;;28.70;98.90;;;;;;4937373;29;20557;-69
2021/06/04 08:53:16;;;;;;;10.23;9.73;;;28.70;98.00;;;;;;4936066;29;20491;-68
2021/06/04 08:55:46;;;;;;;10.47;10.07;;;28.70;98.70;;;;;;4937196;29;20925;-69
2021/06/04 08:58:28;;;;;;;11.37;10.63;;;28.70;97.70;;;;;;4936712;29;20468;-69
2021/06/04 09:00:57;;;;;;;10.50;10.10;;;28.60;98.60;;;;;;4936734;29;20503;-68
2021/06/04 09:03:27;;;;;;;11.27;10.77;;;28.40;98.00;;;;;;4937106;29;20472;-68
2021/06/04 09:05:57;;;;;;;10.93;10.40;;;28.00;98.20;;;;;;4936103;28;20495;-68
2021/06/04 09:08:29;;;;;;;11.70;11.10;;;27.70;99.80;;;;;;4936496;29;20555;-68
2021/06/04 09:10:58;;;;;;;11.47;10.77;;;27.50;99.90;;;;;;4936789;29;20972;-68
2021/06/04 09:13:30;;;;;;;12.07;11.40;;;27.50;99.90;;;;;;4936798;29;20469;-69
2021/06/04 09:16:03;;;;;;;11.80;11.20;;;27.50;99.80;;;;;;4936614;29;20470;-69
2021/06/04 09:18:39;;;;;;;11.90;11.20;;;27.30;99.60;;;;;;4936680;29;20469;-69
2021/06/04 09:21:11;;;;;;;11.83;11.23;;;27.10;99.90;;;;;;4936234;29;20493;-68
2021/06/04 09:23:42;;;;;;;11.90;11.30;;;26.70;99.90;;;;;;4936092;29;20526;-68
2021/06/04 09:26:11;;;;;;;13.10;12.37;;;26.70;99.90;;;;;;4936090;29;20518;-68
2021/06/04 09:28:40;;;;;;;11.90;11.40;;;26.70;99.90;;;;;;4936346;29;20519;-68
2021/06/04 09:31:23;;;;;;;12.23;11.63;;;26.60;99.90;;;;;;4936084;29;20827;-68
2021/06/04 09:33:52;;;;;;;12.47;11.80;;;26.50;99.90;;;;;;4935810;29;20549;-68
2021/06/04 09:36:20;;;;;;;11.40;10.80;;;26.50;99.90;;;;;;4935546;29;20946;-68
2021/06/04 09:38:53;;;;;;;11.87;11.27;;;26.60;99.90;;;;;;4935985;29;20471;-67
2021/06/04 09:41:39;;;;;;;12.53;11.50;;;26.60;99.90;;;;;;4936422;29;20486;-67
2021/06/04 09:44:21;;;;;;;11.33;10.83;;;26.40;99.90;;;;;;4935921;29;20528;-68
2021/06/04 09:46:53;;;;;;;12.77;11.90;;;26.40;99.90;;;;;;4936243;29;20553;-69
2021/06/04 09:49:46;;;;;;;11.60;10.90;;;26.30;99.90;;;;;;4936109;29;20469;-69
2021/06/04 09:52:22;;;;;;;12.77;11.97;;;26.30;99.90;;;;;;4935510;29;21011;-69
2021/06/04 09:55:07;;;;;;;13.20;12.30;;;26.20;99.90;;;;;;4935958;29;20790;-69
2021/06/04 09:57:34;;;;;;;12.47;11.70;;;26.20;99.90;;;;;;4936348;29;20524;-68
2021/06/04 10:00:14;;;;;;;11.10;10.57;;;26.40;99.90;;;;;;4936184;29;20493;-68
2021/06/04 10:02:41;;;;;;;13.23;12.53;;;26.50;99.90;;;;;;4935699;29;20925;-68
2021/06/04 10:05:17;;;;;;;12.40;11.53;;;26.30;99.90;;;;;;4936107;29;20472;-68
2021/06/04 10:07:45;;;;;;;13.30;12.60;;;26.30;99.90;;;;;;4935456;28;20489;-68
2021/06/04 10:10:23;;;;;;;11.97;11.23;;;26.30;99.90;;;;;;4935229;29;20601;-68
2021/06/04 10:12:56;;;;;;;11.20;10.70;;;26.40;99.90;;;;;;4935488;29;20497;-68
2021/06/04 10:15:24;;;;;;;12.57;11.97;;;26.50;99.90;;;;;;4935553;29;20516;-68
2021/06/04 10:18:01;;;;;;;11.97;11.27;;;26.60;99.90;;;;;;4935708;29;20476;-68
2021/06/04 10:20:38;;;;;;;12.70;11.77;;;26.60;99.90;;;;;;4935698;29;20493;-69
2021/06/04 10:23:09;;;;;;;12.00;11.30;;;26.80;99.90;;;;;;4934566;29;20569;-68
2021/06/04 10:25:42;;;;;;;12.17;11.47;;;26.70;99.90;;;;;;4935521;29;20569;-69
2021/06/04 10:28:29;;;;;;;11.47;10.77;;;26.60;99.90;;;;;;4935336;29;20846;-69
2021/06/04 10:31:01;;;;;;;11.80;11.20;;;26.60;99.90;;;;;;4935476;29;20489;-68
2021/06/04 10:33:40;;;;;;;12.00;11.40;;;26.60;99.90;;;;;;4935256;29;20484;-69
2021/06/04 10:36:11;;;;;;;13.03;12.13;;;26.70;99.90;;;;;;4935161;29;21052;-69
2021/06/04 10:38:40;;;;;;;14.00;13.20;;;26.70;99.90;;;;;;4934957;29;20520;-69
2021/06/04 10:41:11;;;;;;;13.20;12.37;;;26.80;99.90;;;;;;4935213;29;20572;-69
2021/06/04 10:43:58;;;;;;;12.77;12.07;;;26.70;99.90;;;;;;4934854;29;20477;-69
2021/06/04 10:46:32;;;;;;;11.63;10.90;;;26.70;99.90;;;;;;4935421;29;20524;-68
2021/06/04 10:49:13;;;;;;;10.67;10.00;;;26.80;99.90;;;;;;4934979;29;20972;-69
2021/06/04 10:51:53;;;;;;;10.63;10.13;;;26.90;99.90;;;;;;4934673;29;20494;-68
2021/06/04 10:54:24;;;;;;;11.10;10.50;;;26.90;99.90;;;;;;4934334;29;20485;-68
2021/06/04 10:57:00;;;;;;;11.63;10.93;;;27.00;99.90;;;;;;4934610;29;20832;-68
2021/06/04 10:59:38;;;;;;;11.00;10.50;;;27.00;99.90;;;;;;4934984;29;20469;-68
2021/06/04 11:02:16;;;;;;;9.77;9.27;;;27.00;99.90;;;;;;4934407;29;20489;-68
2021/06/04 11:04:54;;;;;;;9.33;8.93;;;26.90;99.40;;;;;;4934902;29;20476;-68
2021/06/04 11:07:26;;;;;;;10.73;10.13;;;27.10;99.90;;;;;;4934345;29;20876;-68
2021/06/04 11:09:58;;;;;;;9.70;9.20;;;27.30;99.90;;;;;;4934449;29;20481;-69
2021/06/04 11:12:48;;;;;;;10.67;9.87;;;27.50;99.00;;;;;;4934573;29;20568;-68
2021/06/04 11:15:21;;;;;;;10.13;9.63;;;27.50;99.30;;;;;;4934676;29;20811;-68
2021/06/04 11:17:50;;;;;;;9.90;9.53;;;27.60;99.30;;;;;;4934526;29;20470;-70
2021/06/04 11:20:20;;;;;;;10.00;9.50;;;27.70;98.30;;;;;;4934573;29;20472;-67
2021/06/04 11:22:55;;;;;;;9.50;8.90;;;27.80;97.50;;;;;;4935679;29;20469;-69
2021/06/04 11:25:33;;;;;;;8.80;8.30;;;27.80;95.80;;;;;;4938108;29;20487;-69
2021/06/04 11:28:13;;;;;;;8.77;8.37;;;27.70;95.60;;;;;;4937844;29;20478;-69
2021/06/04 11:30:40;;;;;;;8.07;7.67;;;27.90;97.30;;;;;;4937823;29;20489;-69
2021/06/04 11:33:14;;;;;;;6.53;6.33;;;28.00;95.60;;;;;;4937970;29;20610;-68
2021/06/04 11:35:43;;;;;;;8.20;7.80;;;28.00;93.20;;;;;;4938408;29;20464;-68
2021/06/04 11:38:26;;;;;;;6.93;6.73;;;27.70;93.10;;;;;;4937644;29;20473;-68
2021/06/04 11:40:57;;;;;;;6.60;6.33;;;27.70;93.90;;;;;;4938027;29;20517;-68
2021/06/04 11:43:29;;;;;;;8.00;7.50;;;27.80;92.90;;;;;;4937979;29;20943;-68
2021/06/04 11:46:18;;;;;;;8.20;7.87;;;27.70;93.50;;;;;;4938443;29;20553;-68
2021/06/04 11:49:06;;;;;;;7.80;7.47;;;27.90;94.00;;;;;;4937848;29;20972;-68
2021/06/04 11:51:50;;;;;;;6.97;6.70;;;28.00;94.00;;;;;;4938047;29;20549;-69
2021/06/04 11:54:31;;;;;;;6.50;6.23;;;28.10;93.10;;;;;;4937290;29;20557;-69
2021/06/04 11:57:06;;;;;;;7.80;7.50;;;28.10;92.70;;;;;;4938235;29;20470;-69
2021/06/04 12:00:01;;;;;;;6.97;6.67;;;28.20;92.10;;;;;;4937853;29;20475;-70
2021/06/04 12:02:32;;;;;;;8.07;7.57;;;28.40;92.10;;;;;;4937398;29;20494;-70
2021/06/04 12:05:12;;;;;;;6.87;6.60;;;28.40;90.30;;;;;;4938231;29;20474;-70
2021/06/04 12:07:39;;;;;;;7.07;6.77;;;28.30;91.00;;;;;;4937174;28;20892;-70
2021/06/04 12:10:08;;;;;;;7.77;7.47;;;28.50;91.60;;;;;;4937030;29;20574;-71
2021/06/04 12:12:58;;;;;;;7.63;7.33;;;28.60;90.70;;;;;;4937726;29;20495;-71
2021/06/04 12:15:41;;;;;;;8.23;7.83;;;28.40;92.00;;;;;;4937840;29;20464;-70
2021/06/04 12:19:04;;;;;;;8.90;8.50;;;28.40;91.90;;;;;;4937687;29;20464;-70
2021/06/04 12:21:57;;;;;;;8.47;8.07;;;28.20;92.10;;;;;;4938592;29;20478;-69
2021/06/04 12:25:00;;;;;;;7.60;7.30;;;28.10;92.40;;;;;;4940328;29;20499;-69
2021/06/04 12:28:05;;;;;;;7.40;7.20;;;28.00;92.70;;;;;;4941713;29;20491;-70
2021/06/04 12:30:57;;;;;;;8.20;7.70;;;27.90;92.40;;;;;;4941035;29;20478;-69
2021/06/04 12:33:51;;;;;;;8.27;7.87;;;27.90;92.40;;;;;;4938929;29;20525;-69
2021/06/04 12:37:03;;;;;;;7.93;7.53;;;27.80;91.60;;;;;;4944061;29;20926;-69
2021/06/04 12:39:53;;;;;;;8.17;7.77;;;27.80;91.90;;;;;;4945992;29;20573;-69
2021/06/04 12:42:39;;;;;;;7.80;7.50;;;27.80;91.50;;;;;;4947742;29;20962;-69
2021/06/04 12:45:27;;;;;;;8.50;7.83;;;27.60;91.60;;;;;;4945288;29;20474;-70
2021/06/04 12:47:59;;;;;;;7.70;7.30;;;27.60;91.30;;;;;;4942559;29;20537;-69
2021/06/04 12:50:30;;;;;;;8.50;7.90;;;27.70;92.10;;;;;;4943386;29;20806;-69
2021/06/04 12:53:26;;;;;;;7.60;7.40;;;28.00;91.90;;;;;;4942397;29;20544;-69
2021/06/04 12:56:04;;;;;;;7.60;7.20;;;28.10;91.70;;;;;;4920030;29;20474;-70
2021/06/04 12:58:33;;;;;;;8.00;7.70;;;28.20;91.10;;;;;;4939319;29;20520;-69
2021/06/04 13:01:14;;;;;;;7.33;7.03;;;28.00;90.90;;;;;;4937189;29;20520;-69
2021/06/04 13:03:45;;;;;;;8.50;7.80;;;28.10;91.00;;;;;;4936854;29;20481;-69
2021/06/04 13:06:29;;;;;;;7.70;7.40;;;28.30;90.50;;;;;;4936758;28;20661;-70
2021/06/04 13:08:56;;;;;;;7.83;7.43;;;28.20;91.20;;;;;;4936563;29;20537;-69
2021/06/04 13:11:33;;;;;;;8.23;7.83;;;28.10;90.40;;;;;;4936682;29;20483;-69
2021/06/04 13:13:59;;;;;;;7.40;7.10;;;28.00;91.20;;;;;;4936397;29;20470;-69
2021/06/04 13:16:31;;;;;;;7.53;7.23;;;27.90;91.00;;;;;;4936717;29;20469;-69
2021/06/04 13:19:10;;;;;;;7.80;7.40;;;28.00;91.10;;;;;;4937021;29;20541;-69
2021/06/04 13:21:39;;;;;;;9.60;9.10;;;28.20;91.10;;;;;;4936256;29;20573;-70
2021/06/04 13:24:14;;;;;;;9.80;9.27;;;28.20;92.90;;;;;;4936105;29;20476;-69
2021/06/04 13:26:42;;;;;;;10.17;9.60;;;28.00;93.50;;;;;;4936619;29;20465;-70
2021/06/04 13:29:17;;;;;;;10.57;10.03;;;28.00;93.50;;;;;;4936250;29;20478;-70
2021/06/04 13:31:44;;;;;;;10.30;9.80;;;28.00;93.50;;;;;;4936547;29;20500;-70
2021/06/04 13:34:15;;;;;;;9.00;8.60;;;28.10;93.30;;;;;;4936138;29;21021;-69
2021/06/04 13:36:42;;;;;;;9.80;9.20;;;28.20;92.60;;;;;;4936066;29;20462;-69
2021/06/04 13:39:12;;;;;;;9.03;8.53;;;28.30;92.60;;;;;;4935902;29;20799;-69
2021/06/04 13:41:44;;;;;;;8.90;8.50;;;28.30;92.50;;;;;;4936167;29;20483;-69
2021/06/04 13:44:13;;;;;;;9.03;8.63;;;28.30;92.30;;;;;;4936238;29;20837;-69
2021/06/04 13:46:44;;;;;;;8.40;8.00;;;28.40;92.70;;;;;;4935548;29;20475;-68
2021/06/04 13:49:25;;;;;;;9.30;8.90;;;28.50;93.80;;;;;;4936342;29;20875;-70
2021/06/04 13:51:55;;;;;;;10.30;9.60;;;28.20;93.50;;;;;;4935357;29;20505;-69
2021/06/04 13:54:27;;;;;;;9.70;9.20;;;28.20;93.00;;;;;;4935719;29;20842;-69
2021/06/04 13:56:53;;;;;;;10.07;9.57;;;28.30;93.50;;;;;;4936080;29;20804;-69
2021/06/04 13:59:30;;;;;;;9.33;8.93;;;28.40;93.10;;;;;;4935678;29;21025;-71
2021/06/04 14:02:31;;;;;;;10.23;9.63;;;28.60;93.40;;;;;;4935551;29;21064;-70
2021/06/04 14:05:20;;;;;;;9.40;8.90;;;28.80;94.00;;;;;;4936299;29;20538;-70
2021/06/04 14:07:47;;;;;;;10.00;9.47;;;29.10;93.70;;;;;;4935116;29;20834;-71
2021/06/04 14:10:26;;;;;;;8.97;8.47;;;29.30;92.90;;;;;;4935304;29;20472;-70
2021/06/04 14:13:05;;;;;;;9.87;9.47;;;29.40;92.80;;;;;;4935404;29;20848;-70
2021/06/04 14:15:46;;;;;;;9.53;9.03;;;29.30;92.60;;;;;;4935541;29;20519;-70
2021/06/04 14:18:43;;;;;;;9.67;9.17;;;29.30;92.70;;;;;;4935509;29;20468;-70
2021/06/04 14:21:42;;;;;;;8.90;8.50;;;29.40;92.70;;;;;;4934806;29;21079;-70
2021/06/04 14:24:24;;;;;;;8.83;8.43;;;29.60;92.10;;;;;;4912712;29;20550;-70
2021/06/04 14:26:54;;;;;;;8.50;8.00;;;29.50;91.20;;;;;;4935117;29;20473;-69
2021/06/04 14:29:25;;;;;;;8.37;7.97;;;29.30;90.50;;;;;;4935129;29;20524;-70
2021/06/04 14:31:55;;;;;;;8.77;8.37;;;29.20;91.10;;;;;;4935265;29;20489;-70
2021/06/04 14:34:25;;;;;;;8.73;8.33;;;29.10;91.30;;;;;;4934907;29;20466;-71
2021/06/04 14:36:53;;;;;;;8.47;8.07;;;29.10;91.50;;;;;;4934527;29;20912;-70
2021/06/04 14:39:34;;;;;;;9.00;8.60;;;28.70;91.80;;;;;;4934810;29;20550;-69
2021/06/04 14:42:04;;;;;;;8.57;8.17;;;28.50;92.10;;;;;;4934842;29;20488;-70
2021/06/04 14:44:31;;;;;;;7.37;7.07;;;28.30;92.20;;;;;;4935276;29;20469;-69
2021/06/04 14:47:16;;;;;;;7.60;7.30;;;28.20;91.80;;;;;;4934865;29;20954;-69
2021/06/04 14:49:43;;;;;;;8.10;7.80;;;28.00;92.40;;;;;;4934966;29;20461;-70
2021/06/04 14:52:12;;;;;;;8.07;7.77;;;28.00;93.20;;;;;;4933908;29;20497;-70
2021/06/04 14:54:38;;;;;;;8.33;7.93;;;28.30;92.70;;;;;;4934245;29;20880;-69
2021/06/04 14:57:05;;;;;;;7.10;6.90;;;28.50;92.00;;;;;;4933980;29;20472;-70
2021/06/04 14:59:32;;;;;;;8.23;7.73;;;28.60;90.80;;;;;;4935069;29;20493;-69
2021/06/04 15:01:59;;;;;;;7.80;7.50;;;28.60;91.10;;;;;;4934402;29;20943;-70
2021/06/04 15:04:25;;;;;;;7.97;7.67;;;28.70;90.70;;;;;;4934707;29;20525;-70
2021/06/04 15:06:51;;;;;;;7.67;7.43;;;28.60;90.10;;;;;;4934170;28;20553;-69
2021/06/04 15:09:20;;;;;;;7.37;7.00;;;28.60;90.80;;;;;;4934516;29;20938;-69
2021/06/04 15:11:47;;;;;;;7.83;7.40;;;28.80;91.00;;;;;;4934818;29;20595;-70
2021/06/04 15:14:13;;;;;;;7.20;6.90;;;28.80;90.30;;;;;;4934800;29;20932;-70
2021/06/04 15:16:40;;;;;;;7.60;7.30;;;28.80;90.10;;;;;;4934861;29;20477;-69
2021/06/04 15:19:06;;;;;;;7.23;7.00;;;28.80;90.00;;;;;;4934799;29;20489;-70
2021/06/04 15:21:32;;;;;;;7.50;6.90;;;28.90;90.10;;;;;;4933995;29;20489;-70
2021/06/04 15:24:00;;;;;;;7.50;7.10;;;29.00;88.70;;;;;;4934346;29;20478;-70
2021/06/04 15:26:27;;;;;;;7.60;7.20;;;29.20;88.50;;;;;;4934572;29;20923;-70
2021/06/04 15:28:54;;;;;;;7.20;6.80;;;29.20;88.70;;;;;;4935104;29;20491;-70
2021/06/04 15:31:21;;;;;;;7.23;6.93;;;29.20;88.90;;;;;;4934620;29;20485;-70
2021/06/04 15:33:48;;;;;;;7.33;7.10;;;29.20;88.50;;;;;;4934140;29;20890;-70
2021/06/04 15:36:15;;;;;;;7.90;7.47;;;29.00;89.10;;;;;;4933918;29;20462;-70
2021/06/04 15:38:41;;;;;;;7.73;7.40;;;28.80;88.70;;;;;;4934258;29;20998;-70
2021/06/04 15:41:08;;;;;;;7.67;7.30;;;28.40;89.60;;;;;;4935007;29;20831;-70
2021/06/04 15:43:36;;;;;;;7.30;7.10;;;28.20;90.00;;;;;;4934290;29;20461;-70
2021/06/04 15:46:02;;;;;;;7.37;7.07;;;28.00;90.20;;;;;;4934382;29;21003;-70
2021/06/04 15:48:28;;;;;;;8.23;7.73;;;28.00;90.50;;;;;;4934186;29;20465;-70
2021/06/04 15:50:55;;;;;;;7.90;7.50;;;28.10;90.80;;;;;;4933823;29;20596;-70
2021/06/04 15:53:24;;;;;;;6.57;6.27;;;28.00;90.70;;;;;;4934017;29;20505;-70
2021/06/04 15:55:50;;;;;;;6.97;6.67;;;28.20;90.70;;;;;;4934493;29;20466;-70
2021/06/04 15:58:16;;;;;;;7.40;7.00;;;28.30;90.70;;;;;;4934744;29;20469;-70
2021/06/04 16:00:44;;;;;;;6.93;6.63;;;28.30;90.60;;;;;;4934226;29;20648;-70
2021/06/04 16:03:11;;;;;;;6.93;6.50;;;28.40;89.40;;;;;;4934309;29;20942;-70
2021/06/04 16:05:40;;;;;;;7.33;7.00;;;28.30;88.60;;;;;;4935232;29;20489;-70
2021/06/04 16:08:07;;;;;;;7.10;6.60;;;28.40;88.50;;;;;;4936078;29;20820;-71
2021/06/04 16:10:36;;;;;;;7.33;6.93;;;28.40;88.20;;;;;;4941327;29;20492;-70
2021/06/04 16:13:03;;;;;;;6.90;6.70;;;28.30;87.50;;;;;;4942217;29;20490;-70
2021/06/04 16:15:31;;;;;;;7.13;6.80;;;28.30;88.20;;;;;;4943157;29;20492;-71
2021/06/04 16:17:59;;;;;;;7.00;6.63;;;28.40;88.10;;;;;;4942922;29;20528;-70
2021/06/04 16:20:27;;;;;;;7.07;6.67;;;28.40;88.10;;;;;;4942901;29;20469;-70
2021/06/04 16:22:54;;;;;;;6.00;5.80;;;28.40;88.50;;;;;;4942909;29;20480;-71
2021/06/04 16:25:22;;;;;;;6.30;6.10;;;28.40;89.00;;;;;;4943780;29;20480;-71
2021/06/04 16:27:49;;;;;;;7.17;6.97;;;28.40;89.80;;;;;;4940478;29;20458;-71
2021/06/04 16:30:18;;;;;;;7.07;6.67;;;28.50;87.70;;;;;;4938480;29;20465;-70
2021/06/04 16:32:44;;;;;;;6.90;6.60;;;28.50;87.50;;;;;;4938045;29;20508;-70
2021/06/04 16:35:16;;;;;;;6.30;6.10;;;28.50;87.50;;;;;;4936971;29;20954;-71
2021/06/04 16:37:42;;;;;;;6.40;6.20;;;28.50;88.20;;;;;;4936803;29;20470;-70
2021/06/04 16:40:10;;;;;;;6.63;6.37;;;28.40;87.80;;;;;;4936780;29;20488;-69
2021/06/04 16:42:36;;;;;;;6.43;6.20;;;28.20;87.70;;;;;;4936937;29;20524;-71
2021/06/04 16:45:04;;;;;;;6.70;6.50;;;28.20;88.30;;;;;;4936772;29;20470;-69
2021/06/04 16:47:30;;;;;;;6.80;6.50;;;28.20;88.30;;;;;;4936865;29;20469;-69
2021/06/04 16:49:56;;;;;;;6.20;6.00;;;28.20;87.80;;;;;;4937213;29;20492;-69
2021/06/04 16:52:24;;;;;;;7.90;7.30;;;28.00;87.80;;;;;;4936388;29;20493;-70
2021/06/04 16:54:50;;;;;;;6.60;6.30;;;28.00;88.80;;;;;;4936335;29;20469;-69
2021/06/04 16:57:16;;;;;;;7.23;6.93;;;28.10;88.00;;;;;;4936785;29;20472;-69
2021/06/04 16:59:42;;;;;;;7.60;7.07;;;28.10;87.60;;;;;;4936534;29;20470;-69